Time;durP1;ratioP1;P1;durP2;ratioP2;P2;SDS_P1;SDS_P2;PMS_P1;PMS_P2;Temp;Humidity;BMP_temperature;BMP_pressure;BME280_temperature;BME280_humidity;BME280_pressure;Samples;Min_cycle;Max_cycle;Signal;HPM_P1;HPM_P2
2021/11/26 00:02:23;;;;;;;5.35;1.08;;;5.70;99.90;;;;;;5050798;28;20033;-75
2021/11/26 00:04:50;;;;;;;4.30;1.40;;;5.80;99.90;;;;;;5050174;28;20029;-74
2021/11/26 00:07:18;;;;;;;4.40;1.75;;;5.80;99.90;;;;;;5053883;28;20107;-75
2021/11/26 00:09:44;;;;;;;9.13;2.17;;;5.80;99.90;;;;;;5053788;28;20087;-75
2021/11/26 00:12:09;;;;;;;7.75;2.80;;;5.80;99.90;;;;;;5053417;28;20424;-75
2021/11/26 00:14:42;;;;;;;7.93;2.40;;;5.80;99.90;;;;;;5054147;28;20041;-75
2021/11/26 00:17:15;;;;;;;6.93;1.85;;;5.70;99.90;;;;;;5054258;28;20024;-77
2021/11/26 00:19:41;;;;;;;8.75;3.78;;;5.60;99.90;;;;;;5056034;28;20114;-75
2021/11/26 00:22:07;;;;;;;10.35;4.03;;;5.60;99.90;;;;;;5053870;28;20025;-75
2021/11/26 00:24:33;;;;;;;5.72;2.85;;;5.60;99.90;;;;;;5055285;28;20076;-75
2021/11/26 00:26:58;;;;;;;7.32;2.55;;;5.50;99.90;;;;;;5055454;28;20025;-75
2021/11/26 00:29:24;;;;;;;14.95;2.25;;;5.40;99.90;;;;;;5054703;28;20028;-76
2021/11/26 00:31:49;;;;;;;5.10;1.50;;;5.50;99.90;;;;;;5054652;28;20389;-74
2021/11/26 00:34:15;;;;;;;10.50;1.40;;;5.40;99.90;;;;;;5053799;28;20469;-75
2021/11/26 00:36:41;;;;;;;6.45;2.60;;;5.40;99.90;;;;;;5053659;28;20031;-75
2021/11/26 00:39:07;;;;;;;6.85;1.90;;;5.30;99.90;;;;;;5054073;28;20092;-74
2021/11/26 00:41:33;;;;;;;6.47;3.05;;;5.30;99.90;;;;;;5054144;28;20535;-75
2021/11/26 00:43:58;;;;;;;7.78;2.70;;;5.30;99.90;;;;;;5053163;28;20029;-75
2021/11/26 00:46:24;;;;;;;9.93;2.28;;;5.30;99.90;;;;;;5053811;28;20029;-74
2021/11/26 00:48:49;;;;;;;18.70;4.40;;;5.20;99.90;;;;;;5054047;28;20090;-74
2021/11/26 00:51:15;;;;;;;12.20;4.40;;;5.20;99.90;;;;;;5052822;28;20044;-74
2021/11/26 00:53:41;;;;;;;5.10;1.83;;;5.20;99.90;;;;;;5053845;28;20108;-75
2021/11/26 00:56:13;;;;;;;11.20;1.90;;;5.20;99.90;;;;;;5052696;28;20029;-75
2021/11/26 00:58:39;;;;;;;6.30;2.20;;;5.20;99.90;;;;;;5052583;28;20040;-74
2021/11/26 01:01:04;;;;;;;8.57;1.65;;;5.30;99.90;;;;;;5053049;28;20021;-75
2021/11/26 01:03:30;;;;;;;4.55;2.15;;;5.40;99.90;;;;;;5053657;28;20420;-75
2021/11/26 01:05:56;;;;;;;4.57;0.90;;;5.50;99.90;;;;;;5052846;28;20064;-75
2021/11/26 01:08:24;;;;;;;8.57;1.00;;;5.50;99.90;;;;;;5053501;28;20167;-75
2021/11/26 01:10:50;;;;;;;8.25;2.38;;;5.50;99.90;;;;;;5053868;28;20029;-75
2021/11/26 01:13:17;;;;;;;8.35;1.10;;;5.50;99.90;;;;;;5052766;28;20033;-74
2021/11/26 01:15:44;;;;;;;4.95;1.10;;;5.50;99.90;;;;;;5053812;28;20029;-75
2021/11/26 01:18:11;;;;;;;7.53;1.20;;;5.40;99.90;;;;;;5052125;28;20025;-75
2021/11/26 01:20:38;;;;;;;6.20;1.40;;;5.50;99.90;;;;;;5052719;28;20028;-74
2021/11/26 01:23:04;;;;;;;2.92;1.40;;;5.40;99.90;;;;;;5052769;28;20017;-74
2021/11/26 01:25:30;;;;;;;1.65;1.23;;;5.40;99.90;;;;;;5052095;28;20074;-74
2021/11/26 01:27:57;;;;;;;2.30;1.20;;;5.30;99.90;;;;;;5053117;28;20029;-74
2021/11/26 01:30:30;;;;;;;2.55;1.25;;;5.40;99.90;;;;;;5052899;28;20475;-75
2021/11/26 01:32:58;;;;;;;6.28;1.90;;;5.40;99.90;;;;;;5053494;28;20033;-75
2021/11/26 01:35:24;;;;;;;6.78;1.20;;;5.30;99.90;;;;;;5052690;28;20083;-75
2021/11/26 01:37:50;;;;;;;6.45;1.48;;;5.40;99.90;;;;;;5048043;28;20017;-74
2021/11/26 01:40:17;;;;;;;6.38;1.40;;;6.30;99.90;;;;;;5051738;28;20100;-74
2021/11/26 01:42:42;;;;;;;6.95;1.15;;;5.40;99.90;;;;;;5053488;28;20374;-75
2021/11/26 01:45:09;;;;;;;5.20;1.50;;;5.50;99.90;;;;;;5052465;28;20044;-74
2021/11/26 01:47:40;;;;;;;2.72;0.77;;;5.50;99.90;;;;;;5051817;28;20444;-76
2021/11/26 01:50:07;;;;;;;3.42;0.75;;;5.40;99.90;;;;;;5053518;28;20393;-76
2021/11/26 01:52:33;;;;;;;2.85;0.50;;;5.40;99.90;;;;;;5056613;28;20362;-76
2021/11/26 01:54:59;;;;;;;2.83;0.80;;;5.40;99.90;;;;;;5051649;28;20067;-75
2021/11/26 01:57:25;;;;;;;1.42;0.63;;;5.40;99.90;;;;;;5053218;28;20017;-75
2021/11/26 01:59:52;;;;;;;1.20;0.60;;;5.40;99.90;;;;;;5052688;28;20500;-75
2021/11/26 02:02:18;;;;;;;2.78;0.50;;;5.30;99.90;;;;;;5051861;28;20464;-75
2021/11/26 02:04:44;;;;;;;4.95;0.73;;;5.30;99.90;;;;;;5052966;28;20025;-76
2021/11/26 02:07:11;;;;;;;4.95;0.60;;;5.20;99.90;;;;;;5051832;28;20512;-74
2021/11/26 02:09:38;;;;;;;3.40;1.15;;;5.20;99.90;;;;;;5051690;28;20504;-74
2021/11/26 02:12:04;;;;;;;8.02;2.25;;;5.20;99.90;;;;;;5052083;28;20104;-75
2021/11/26 02:14:30;;;;;;;3.92;1.15;;;5.20;99.90;;;;;;5052454;28;20123;-75
2021/11/26 02:16:56;;;;;;;6.57;1.38;;;5.20;99.90;;;;;;5052385;28;20025;-75
2021/11/26 02:19:23;;;;;;;1.38;0.73;;;5.20;99.90;;;;;;5053023;28;20441;-74
2021/11/26 02:21:50;;;;;;;5.53;1.52;;;5.20;99.90;;;;;;5051740;28;20481;-75
2021/11/26 02:24:15;;;;;;;3.97;0.75;;;5.30;99.90;;;;;;5052309;28;20503;-76
2021/11/26 02:26:45;;;;;;;7.75;0.80;;;5.40;99.90;;;;;;5052318;28;20025;-76
2021/11/26 02:29:11;;;;;;;2.58;0.80;;;5.60;99.90;;;;;;5052077;28;20033;-76
2021/11/26 02:31:37;;;;;;;4.00;1.05;;;5.70;99.90;;;;;;5052637;28;20036;-75
2021/11/26 02:34:06;;;;;;;1.65;0.60;;;5.70;99.90;;;;;;5047723;28;20380;-75
2021/11/26 02:36:32;;;;;;;4.15;0.70;;;5.70;99.90;;;;;;5051923;28;20052;-75
2021/11/26 02:38:58;;;;;;;3.65;0.90;;;5.60;99.90;;;;;;5055978;28;20066;-75
2021/11/26 02:41:26;;;;;;;2.35;0.60;;;5.50;99.90;;;;;;5055840;28;20025;-75
2021/11/26 02:43:52;;;;;;;3.28;0.70;;;5.50;99.90;;;;;;5055053;28;20025;-75
2021/11/26 02:46:21;;;;;;;7.85;1.17;;;5.50;99.90;;;;;;5056045;28;20047;-75
2021/11/26 02:48:46;;;;;;;5.35;1.10;;;5.40;99.90;;;;;;5056368;28;20056;-75
2021/11/26 02:51:13;;;;;;;7.45;1.58;;;5.40;99.90;;;;;;5056215;28;20090;-75
2021/11/26 02:53:38;;;;;;;2.15;1.00;;;5.40;99.90;;;;;;5056505;28;20021;-74
2021/11/26 02:56:04;;;;;;;2.25;1.10;;;5.30;99.90;;;;;;5054419;28;20481;-74
2021/11/26 02:58:31;;;;;;;6.43;0.82;;;5.20;99.90;;;;;;5055413;28;20021;-75
2021/11/26 03:00:59;;;;;;;2.92;0.80;;;5.20;99.90;;;;;;5055747;28;20464;-74
2021/11/26 03:03:24;;;;;;;3.05;0.77;;;5.20;99.90;;;;;;5056309;28;20029;-74
2021/11/26 03:06:05;;;;;;;2.67;0.70;;;5.00;99.90;;;;;;5055230;28;20128;-74
2021/11/26 03:08:31;;;;;;;5.82;0.82;;;5.00;99.90;;;;;;5042581;28;20071;-74
2021/11/26 03:10:58;;;;;;;5.15;2.17;;;4.90;99.90;;;;;;5054737;28;20044;-74
2021/11/26 03:13:24;;;;;;;1.20;0.98;;;5.00;99.90;;;;;;5055676;28;20025;-73
2021/11/26 03:15:50;;;;;;;6.60;0.90;;;4.90;99.90;;;;;;5055745;28;20040;-75
2021/11/26 03:18:18;;;;;;;2.75;1.00;;;5.00;99.90;;;;;;5054730;28;20027;-75
2021/11/26 03:20:49;;;;;;;2.28;0.70;;;5.10;99.90;;;;;;5055463;28;20029;-74
2021/11/26 03:23:15;;;;;;;;;;;5.00;99.90;;;;;;5055805;28;20381;-75
2021/11/26 03:25:41;;;;;;;2.55;1.17;;;5.10;99.90;;;;;;5058472;28;19951;-73
2021/11/26 03:28:08;;;;;;;2.38;0.82;;;5.10;99.90;;;;;;5054801;28;20036;-74
2021/11/26 03:30:35;;;;;;;4.38;0.82;;;5.10;99.90;;;;;;5055109;28;20052;-74
2021/11/26 03:33:01;;;;;;;4.38;1.10;;;5.10;99.90;;;;;;5054549;28;20135;-75
2021/11/26 03:35:27;;;;;;;5.35;0.90;;;5.10;99.90;;;;;;5054701;28;20384;-75
2021/11/26 03:37:53;;;;;;;2.85;0.85;;;5.00;99.90;;;;;;5055118;28;20384;-75
2021/11/26 03:40:20;;;;;;;4.80;1.00;;;5.00;99.90;;;;;;5054416;28;20039;-74
2021/11/26 03:42:46;;;;;;;3.90;0.80;;;4.90;99.90;;;;;;5055393;28;20029;-74
2021/11/26 03:45:12;;;;;;;4.55;0.93;;;4.80;99.90;;;;;;5054293;28;20036;-75
2021/11/26 03:47:38;;;;;;;1.55;0.70;;;4.80;99.90;;;;;;5053091;28;20033;-76
2021/11/26 03:50:05;;;;;;;2.40;0.75;;;4.70;99.90;;;;;;5055395;28;20543;-75
2021/11/26 03:52:31;;;;;;;3.42;0.80;;;4.70;99.90;;;;;;5055128;28;20017;-75
2021/11/26 03:54:56;;;;;;;6.88;1.90;;;4.70;99.90;;;;;;5054025;28;20380;-74
2021/11/26 03:57:22;;;;;;;2.00;0.93;;;4.60;99.90;;;;;;5054338;28;20104;-74
2021/11/26 03:59:48;;;;;;;3.60;1.00;;;4.70;99.90;;;;;;5056328;28;20017;-74
2021/11/26 04:02:13;;;;;;;1.65;1.00;;;4.60;99.90;;;;;;5054720;28;20481;-75
2021/11/26 04:04:39;;;;;;;3.53;1.40;;;4.70;99.90;;;;;;5054435;28;20028;-75
2021/11/26 04:07:05;;;;;;;4.55;1.20;;;4.60;99.90;;;;;;5053588;28;20378;-74
2021/11/26 04:09:31;;;;;;;3.70;1.40;;;4.70;99.90;;;;;;5054017;28;20044;-73
2021/11/26 04:11:56;;;;;;;4.03;1.60;;;4.70;99.90;;;;;;5054505;28;20029;-75
2021/11/26 04:14:22;;;;;;;6.57;1.45;;;4.80;99.90;;;;;;5053569;28;20032;-74
2021/11/26 04:16:48;;;;;;;7.78;1.75;;;4.90;99.90;;;;;;5055509;28;20039;-75
2021/11/26 04:19:15;;;;;;;2.47;1.00;;;4.90;99.90;;;;;;5053951;28;20029;-74
2021/11/26 04:21:40;;;;;;;6.63;1.38;;;5.00;99.90;;;;;;5053265;28;20033;-74
2021/11/26 04:24:06;;;;;;;6.57;1.10;;;4.90;99.90;;;;;;5053650;28;20112;-74
2021/11/26 04:26:31;;;;;;;7.07;1.88;;;5.00;99.90;;;;;;5055930;28;20028;-75
2021/11/26 04:28:57;;;;;;;4.80;1.17;;;5.00;99.90;;;;;;5053690;28;20017;-75
2021/11/26 04:31:23;;;;;;;7.55;2.10;;;5.00;99.90;;;;;;5055332;28;20105;-75
2021/11/26 04:33:49;;;;;;;4.13;1.35;;;5.00;99.90;;;;;;5054467;28;20022;-74
2021/11/26 04:36:14;;;;;;;9.07;2.05;;;5.00;99.90;;;;;;5053256;28;20086;-74
2021/11/26 04:38:40;;;;;;;6.60;1.73;;;5.00;99.90;;;;;;5054305;28;20101;-74
2021/11/26 04:41:06;;;;;;;5.63;1.42;;;5.00;99.90;;;;;;5053851;28;20036;-75
2021/11/26 04:43:35;;;;;;;8.75;1.90;;;5.10;99.90;;;;;;5053924;28;20021;-74
2021/11/26 04:46:00;;;;;;;2.75;1.70;;;5.10;99.90;;;;;;5055362;28;20036;-73
2021/11/26 04:48:26;;;;;;;5.93;1.63;;;5.10;99.90;;;;;;5053345;28;20021;-73
2021/11/26 04:50:52;;;;;;;3.05;1.40;;;5.10;99.90;;;;;;5053009;28;20175;-74
2021/11/26 04:53:19;;;;;;;14.35;1.77;;;5.10;99.90;;;;;;5053809;28;20083;-74
2021/11/26 04:55:45;;;;;;;9.13;2.13;;;5.20;99.90;;;;;;5053706;28;20116;-73
2021/11/26 04:58:11;;;;;;;6.40;1.77;;;5.10;99.90;;;;;;5052287;28;20013;-74
2021/11/26 05:00:37;;;;;;;8.38;1.67;;;5.10;99.90;;;;;;5053339;28;20029;-75
2021/11/26 05:03:03;;;;;;;12.45;1.83;;;5.10;99.90;;;;;;5052954;28;20025;-75
2021/11/26 05:05:29;;;;;;;18.35;2.17;;;5.10;99.90;;;;;;5052630;28;20047;-75
2021/11/26 05:07:54;;;;;;;13.18;1.92;;;5.10;99.90;;;;;;5053467;28;20029;-75
2021/11/26 05:10:24;;;;;;;13.93;1.50;;;5.10;99.90;;;;;;5052935;28;20463;-75
2021/11/26 05:12:54;;;;;;;7.60;1.45;;;5.10;99.90;;;;;;5053961;28;20025;-74
2021/11/26 05:15:26;;;;;;;12.40;1.88;;;5.10;99.90;;;;;;5053634;28;20423;-74
2021/11/26 05:17:57;;;;;;;9.48;1.33;;;5.10;99.90;;;;;;5052591;28;20025;-74
2021/11/26 05:20:23;;;;;;;8.90;1.75;;;5.10;99.90;;;;;;5040110;28;20029;-73
2021/11/26 05:22:50;;;;;;;9.85;2.70;;;5.10;99.90;;;;;;5052918;28;20025;-74
2021/11/26 05:25:16;;;;;;;7.40;1.77;;;5.10;99.90;;;;;;5052226;28;20078;-74
2021/11/26 05:27:42;;;;;;;12.68;1.63;;;5.00;99.90;;;;;;5053463;28;20540;-75
2021/11/26 05:30:09;;;;;;;7.90;1.80;;;5.00;99.90;;;;;;5052495;28;20396;-74
2021/11/26 05:32:37;;;;;;;9.43;2.00;;;5.00;99.90;;;;;;5052926;28;20032;-74
2021/11/26 05:35:04;;;;;;;10.98;1.55;;;5.00;99.90;;;;;;5052599;28;20043;-74
2021/11/26 05:37:30;;;;;;;18.27;2.00;;;5.00;99.90;;;;;;5052450;28;20587;-75
2021/11/26 05:39:58;;;;;;;10.55;1.52;;;5.10;99.90;;;;;;5051319;28;20104;-75
2021/11/26 05:42:24;;;;;;;15.07;1.95;;;5.00;99.90;;;;;;5052714;28;20025;-74
2021/11/26 05:44:52;;;;;;;9.80;2.00;;;5.00;99.90;;;;;;5052455;28;20025;-74
2021/11/26 05:47:18;;;;;;;13.68;1.98;;;5.00;99.90;;;;;;5051446;28;20033;-74
2021/11/26 05:49:43;;;;;;;9.07;1.20;;;5.00;99.90;;;;;;5052723;28;20028;-74
2021/11/26 05:52:09;;;;;;;7.75;1.70;;;5.00;99.90;;;;;;5052781;28;20048;-74
2021/11/26 05:54:36;;;;;;;13.40;2.05;;;4.90;99.90;;;;;;5051406;28;20021;-74
2021/11/26 05:57:02;;;;;;;16.67;2.35;;;5.00;99.90;;;;;;5051992;28;20029;-74
2021/11/26 05:59:28;;;;;;;12.95;1.90;;;5.00;99.90;;;;;;5051217;28;20027;-75
2021/11/26 06:01:54;;;;;;;11.70;1.70;;;5.00;99.90;;;;;;5052011;28;20028;-74
2021/11/26 06:04:19;;;;;;;5.65;1.65;;;5.00;99.90;;;;;;5052190;28;20384;-74
2021/11/26 06:06:45;;;;;;;9.63;1.60;;;5.10;99.90;;;;;;5052532;28;20064;-74
2021/11/26 06:09:10;;;;;;;7.70;1.77;;;5.00;99.90;;;;;;5050628;28;20059;-74
2021/11/26 06:11:36;;;;;;;6.25;1.42;;;4.90;99.90;;;;;;5039747;28;20051;-74
2021/11/26 06:14:01;;;;;;;13.32;1.92;;;4.90;99.90;;;;;;5032502;28;20057;-75
2021/11/26 06:16:28;;;;;;;16.52;1.85;;;4.90;99.90;;;;;;5035704;28;20120;-77
2021/11/26 06:18:54;;;;;;;11.00;2.05;;;5.00;99.90;;;;;;5034329;28;20026;-75
2021/11/26 06:21:19;;;;;;;5.50;1.40;;;5.00;99.90;;;;;;5033420;28;20067;-75
2021/11/26 06:23:45;;;;;;;5.72;1.70;;;5.00;99.90;;;;;;5035373;28;20025;-75
2021/11/26 06:26:10;;;;;;;8.23;1.45;;;4.90;99.90;;;;;;5030432;28;20022;-74
2021/11/26 06:28:39;;;;;;;16.92;2.40;;;5.00;99.90;;;;;;5033642;28;20033;-75
2021/11/26 06:31:05;;;;;;;7.75;1.42;;;5.00;99.90;;;;;;5033380;28;20079;-76
2021/11/26 06:33:33;;;;;;;8.45;2.00;;;5.00;99.90;;;;;;5037457;28;20168;-75
2021/11/26 06:35:59;;;;;;;13.38;2.40;;;4.90;99.90;;;;;;5033451;28;20034;-75
2021/11/26 06:38:27;;;;;;;8.07;1.60;;;5.00;99.90;;;;;;5037479;28;20025;-75
2021/11/26 06:40:53;;;;;;;7.60;1.30;;;4.90;99.90;;;;;;5037008;28;20171;-74
2021/11/26 06:43:19;;;;;;;7.90;1.40;;;4.90;99.90;;;;;;5044065;28;20112;-74
2021/11/26 06:45:44;;;;;;;7.18;1.55;;;5.00;99.90;;;;;;5050733;28;20029;-74
2021/11/26 06:48:10;;;;;;;9.20;1.35;;;5.00;99.90;;;;;;5047752;28;20105;-75
2021/11/26 06:50:38;;;;;;;8.85;2.40;;;5.00;99.90;;;;;;5048944;28;20136;-76
2021/11/26 06:53:07;;;;;;;10.45;2.05;;;5.00;99.90;;;;;;5045272;28;20567;-76
2021/11/26 06:55:33;;;;;;;5.65;1.63;;;5.00;99.90;;;;;;5050237;28;20041;-75
2021/11/26 06:57:59;;;;;;;11.07;2.47;;;5.00;99.90;;;;;;5050143;28;20029;-75
2021/11/26 07:00:25;;;;;;;4.22;1.50;;;5.10;99.90;;;;;;5050461;28;20052;-75
2021/11/26 07:02:51;;;;;;;9.55;1.70;;;5.00;99.90;;;;;;5048768;28;20018;-76
2021/11/26 07:05:17;;;;;;;7.45;1.92;;;5.10;99.90;;;;;;5049873;28;20047;-74
2021/11/26 07:07:42;;;;;;;10.73;1.60;;;5.10;99.90;;;;;;5050308;28;20032;-74
2021/11/26 07:10:10;;;;;;;6.85;1.60;;;5.20;99.90;;;;;;5050150;28;20025;-74
2021/11/26 07:12:36;;;;;;;10.82;1.52;;;5.10;99.90;;;;;;5051132;28;20075;-73
2021/11/26 07:15:05;;;;;;;7.65;1.40;;;5.10;99.90;;;;;;5050538;28;20029;-72
2021/11/26 07:17:31;;;;;;;10.90;2.38;;;5.10;99.90;;;;;;5050314;28;20021;-73
2021/11/26 07:19:57;;;;;;;11.82;2.17;;;5.00;99.90;;;;;;5049954;28;20033;-72
2021/11/26 07:22:23;;;;;;;7.93;1.67;;;4.90;99.90;;;;;;5051055;28;20496;-73
2021/11/26 07:24:48;;;;;;;10.45;1.95;;;4.90;99.90;;;;;;5053279;28;20099;-76
2021/11/26 07:27:15;;;;;;;11.95;1.67;;;5.00;99.90;;;;;;5055647;28;20033;-75
2021/11/26 07:29:40;;;;;;;6.38;1.65;;;4.90;99.90;;;;;;5055383;28;20033;-75
2021/11/26 07:32:07;;;;;;;8.80;2.60;;;5.00;99.90;;;;;;5050939;28;20518;-76
2021/11/26 07:34:32;;;;;;;10.20;1.98;;;5.10;99.90;;;;;;5054028;28;20143;-76
2021/11/26 07:36:58;;;;;;;5.18;1.48;;;5.10;99.90;;;;;;5052564;28;20110;-76
2021/11/26 07:39:31;;;;;;;6.72;1.85;;;5.10;99.90;;;;;;5050700;28;20044;-75
2021/11/26 07:41:57;;;;;;;8.15;1.90;;;5.10;99.90;;;;;;5056339;28;20053;-76
2021/11/26 07:44:22;;;;;;;5.68;1.63;;;5.20;99.90;;;;;;5053125;28;20106;-75
2021/11/26 07:46:48;;;;;;;7.82;1.65;;;5.20;99.90;;;;;;5050359;28;20079;-75
2021/11/26 07:49:14;;;;;;;10.70;1.63;;;5.20;99.90;;;;;;5053527;28;20040;-76
2021/11/26 07:51:39;;;;;;;7.07;1.77;;;5.20;99.90;;;;;;5054632;28;20032;-75
2021/11/26 07:54:05;;;;;;;7.88;1.80;;;5.30;99.90;;;;;;5053310;28;20031;-76
2021/11/26 07:56:31;;;;;;;8.68;1.83;;;5.30;99.90;;;;;;5054614;28;20036;-75
2021/11/26 07:58:56;;;;;;;6.90;1.58;;;5.40;99.90;;;;;;5053566;28;20100;-74
2021/11/26 08:01:22;;;;;;;6.55;1.95;;;5.40;99.90;;;;;;5054238;28;20385;-75
2021/11/26 08:03:48;;;;;;;6.88;1.65;;;5.40;99.90;;;;;;5053474;28;20044;-74
2021/11/26 08:06:14;;;;;;;9.27;1.65;;;5.50;99.90;;;;;;5052203;28;20048;-76
2021/11/26 08:08:40;;;;;;;8.75;1.60;;;5.40;99.90;;;;;;5053410;28;20423;-75
2021/11/26 08:11:05;;;;;;;6.10;1.55;;;5.40;99.90;;;;;;5052355;28;20035;-75
2021/11/26 08:13:31;;;;;;;4.85;1.90;;;5.40;99.90;;;;;;5049538;28;20373;-75
2021/11/26 08:15:57;;;;;;;15.90;2.20;;;5.40;99.90;;;;;;5049735;28;20029;-76
2021/11/26 08:18:22;;;;;;;11.52;2.60;;;5.40;99.90;;;;;;5052855;28;20029;-76
2021/11/26 08:20:48;;;;;;;15.02;4.53;;;5.50;99.90;;;;;;5051171;28;20064;-75
2021/11/26 08:23:13;;;;;;;10.90;2.83;;;5.50;99.90;;;;;;5054034;28;20056;-75
2021/11/26 08:25:39;;;;;;;13.52;2.78;;;5.50;99.90;;;;;;5056300;28;20083;-76
2021/11/26 08:28:06;;;;;;;11.35;3.90;;;5.50;99.90;;;;;;5053296;28;20021;-74
2021/11/26 08:30:32;;;;;;;14.23;3.05;;;5.60;99.90;;;;;;5054099;28;20033;-75
2021/11/26 08:32:57;;;;;;;8.10;2.53;;;5.60;99.90;;;;;;5052882;28;20021;-75
2021/11/26 08:35:26;;;;;;;10.90;3.55;;;5.60;99.90;;;;;;5053333;28;20040;-75
2021/11/26 08:37:53;;;;;;;14.73;3.75;;;5.60;99.90;;;;;;5054150;28;20021;-75
2021/11/26 08:40:19;;;;;;;15.15;3.88;;;5.60;99.90;;;;;;5053357;28;20533;-76
2021/11/26 08:42:46;;;;;;;15.45;3.65;;;5.70;99.90;;;;;;5053097;28;20104;-77
2021/11/26 08:45:12;;;;;;;11.48;3.10;;;5.70;99.90;;;;;;5053493;28;20037;-75
2021/11/26 08:47:39;;;;;;;11.25;3.35;;;5.70;99.90;;;;;;5054189;28;20533;-76
2021/11/26 08:50:09;;;;;;;14.00;3.17;;;5.70;99.90;;;;;;5052295;28;20122;-76
2021/11/26 08:52:35;;;;;;;13.23;4.53;;;5.70;99.90;;;;;;5053041;28;20373;-76
2021/11/26 08:55:03;;;;;;;15.07;3.78;;;5.70;99.90;;;;;;5052696;28;20385;-74
2021/11/26 08:57:29;;;;;;;8.55;4.15;;;5.70;99.90;;;;;;5052480;28;20083;-73
2021/11/26 08:59:55;;;;;;;12.10;3.72;;;5.80;99.90;;;;;;5053488;28;20473;-73
2021/11/26 09:02:21;;;;;;;12.82;3.47;;;5.80;99.90;;;;;;5052437;28;20124;-74
2021/11/26 09:04:47;;;;;;;14.07;3.95;;;5.80;99.90;;;;;;5053275;28;20024;-75
2021/11/26 09:07:12;;;;;;;18.88;4.90;;;5.80;99.90;;;;;;5052522;28;20045;-75
2021/11/26 09:09:38;;;;;;;13.98;4.28;;;5.80;99.90;;;;;;5052888;28;20469;-74
2021/11/26 09:12:07;;;;;;;20.27;5.78;;;5.80;99.90;;;;;;5053312;28;20386;-76
2021/11/26 09:14:32;;;;;;;20.88;6.18;;;5.80;99.90;;;;;;5053481;28;20032;-76
2021/11/26 09:16:59;;;;;;;21.98;6.28;;;5.80;99.90;;;;;;5051516;28;20079;-77
2021/11/26 09:19:24;;;;;;;27.80;6.65;;;5.80;99.90;;;;;;5053133;28;20064;-75
2021/11/26 09:21:50;;;;;;;31.40;7.85;;;5.80;99.90;;;;;;5053369;28;20049;-75
2021/11/26 09:24:16;;;;;;;22.40;6.80;;;5.80;99.90;;;;;;5051986;28;20071;-75
2021/11/26 09:26:42;;;;;;;25.95;6.97;;;5.80;99.90;;;;;;5053421;28;20025;-75
2021/11/26 09:29:08;;;;;;;16.73;5.57;;;5.80;99.90;;;;;;5053337;28;20024;-76
2021/11/26 09:31:34;;;;;;;18.88;5.05;;;5.90;99.90;;;;;;5052976;28;20082;-77
2021/11/26 09:34:02;;;;;;;14.55;4.65;;;5.90;99.90;;;;;;5039338;28;20415;-77
2021/11/26 09:36:29;;;;;;;17.58;4.47;;;5.90;99.90;;;;;;5053079;28;20501;-76
2021/11/26 09:38:55;;;;;;;19.27;5.40;;;5.90;99.90;;;;;;5051697;28;20025;-76
2021/11/26 09:41:20;;;;;;;16.48;4.85;;;5.90;99.90;;;;;;5053148;28;20599;-76
2021/11/26 09:43:48;;;;;;;16.15;4.82;;;5.90;99.90;;;;;;5052846;28;20059;-76
2021/11/26 09:46:17;;;;;;;15.43;5.35;;;6.00;99.90;;;;;;5049542;28;20039;-76
2021/11/26 09:48:43;;;;;;;13.73;4.22;;;6.00;99.90;;;;;;5052632;28;20036;-76
2021/11/26 09:51:09;;;;;;;13.25;4.65;;;6.00;99.90;;;;;;5052178;28;20422;-76
2021/11/26 09:53:35;;;;;;;20.50;3.78;;;6.10;99.90;;;;;;5051716;28;20112;-76
2021/11/26 09:56:04;;;;;;;19.27;3.72;;;6.10;99.90;;;;;;5054315;28;20056;-75
2021/11/26 09:58:31;;;;;;;13.05;3.70;;;6.10;99.90;;;;;;5051551;28;20392;-75
2021/11/26 10:00:59;;;;;;;16.40;4.10;;;6.10;99.90;;;;;;5051148;28;20033;-75
2021/11/26 10:03:46;;;;;;;13.40;3.88;;;6.20;99.90;;;;;;5052017;28;20052;-73
2021/11/26 10:06:20;;;;;;;24.73;3.38;;;6.30;99.90;;;;;;5046734;28;20121;-74
2021/11/26 10:09:01;;;;;;;12.35;3.15;;;6.30;99.90;;;;;;5048294;28;20033;-75
2021/11/26 10:11:30;;;;;;;18.55;5.15;;;6.20;99.90;;;;;;5047657;28;20024;-75
2021/11/26 10:13:56;;;;;;;12.88;3.17;;;6.30;99.90;;;;;;5048649;28;20088;-75
2021/11/26 10:16:22;;;;;;;14.32;2.40;;;6.40;99.90;;;;;;5049743;28;20171;-77
2021/11/26 10:18:57;;;;;;;9.25;2.80;;;6.40;99.90;;;;;;5050413;28;20018;-74
2021/11/26 10:21:25;;;;;;;11.75;2.90;;;6.40;99.90;;;;;;5048319;28;20401;-75
2021/11/26 10:23:53;;;;;;;20.95;4.07;;;6.40;99.90;;;;;;5050620;28;20025;-75
2021/11/26 10:26:26;;;;;;;18.58;3.28;;;6.50;99.90;;;;;;5051169;28;20021;-75
2021/11/26 10:28:59;;;;;;;15.80;3.13;;;6.50;99.90;;;;;;5047790;28;20381;-75
2021/11/26 10:31:26;;;;;;;9.57;2.55;;;6.50;99.90;;;;;;5048209;28;20087;-75
2021/11/26 10:33:55;;;;;;;16.23;3.67;;;6.60;99.90;;;;;;5051709;28;20109;-76
2021/11/26 10:36:20;;;;;;;10.50;3.15;;;6.60;99.90;;;;;;5050336;28;20469;-75
2021/11/26 10:38:46;;;;;;;7.22;2.70;;;6.40;99.90;;;;;;5050940;28;20093;-75
2021/11/26 10:41:15;;;;;;;11.38;2.17;;;6.60;99.90;;;;;;5047936;28;20416;-76
2021/11/26 10:59:33;;;;;;;11.60;2.08;;;6.60;99.90;;;;;;5053974;28;20033;-75
2021/11/26 11:01:59;;;;;;;12.90;2.75;;;6.60;99.90;;;;;;5053176;28;20489;-75
2021/11/26 11:04:27;;;;;;;11.30;2.08;;;6.60;99.90;;;;;;5053555;28;20017;-76
2021/11/26 11:07:05;;;;;;;8.55;2.60;;;6.60;99.90;;;;;;5050582;28;20041;-75
2021/11/26 11:09:42;;;;;;;6.50;1.90;;;6.50;99.90;;;;;;5049155;28;20025;-75
2021/11/26 11:12:09;;;;;;;13.95;3.08;;;6.50;99.90;;;;;;5059251;28;20030;-74
2021/11/26 11:14:34;;;;;;;8.95;2.17;;;6.50;99.90;;;;;;5053761;28;20151;-75
2021/11/26 11:17:00;;;;;;;10.75;3.40;;;6.60;99.90;;;;;;5053302;28;20112;-76
2021/11/26 11:19:26;;;;;;;4.85;1.92;;;6.50;99.90;;;;;;5050458;28;20021;-75
2021/11/26 11:21:54;;;;;;;8.90;2.75;;;6.50;99.90;;;;;;5053206;28;20028;-76
2021/11/26 11:24:21;;;;;;;8.80;2.15;;;6.40;99.90;;;;;;5052759;28;20020;-76
2021/11/26 11:26:49;;;;;;;8.35;2.50;;;6.40;99.90;;;;;;5050208;28;20597;-76
2021/11/26 11:29:17;;;;;;;12.25;4.60;;;6.40;99.90;;;;;;5053690;28;20028;-74
2021/11/26 11:31:47;;;;;;;7.97;1.92;;;6.40;99.90;;;;;;5052897;28;20029;-77
2021/11/26 11:34:16;;;;;;;7.53;2.85;;;6.30;99.90;;;;;;5052414;28;20024;-76
2021/11/26 11:36:43;;;;;;;9.35;2.45;;;6.30;99.90;;;;;;5053461;28;20114;-77
2021/11/26 11:39:09;;;;;;;7.53;2.38;;;6.40;99.90;;;;;;5052370;28;20021;-76
2021/11/26 11:41:54;;;;;;;5.85;2.45;;;6.30;99.90;;;;;;5053998;28;20025;-78
2021/11/26 11:44:27;;;;;;;8.00;1.95;;;6.40;99.90;;;;;;5050456;28;20547;-77
2021/11/26 11:46:55;;;;;;;6.97;2.85;;;6.30;99.90;;;;;;5046485;28;20477;-73
2021/11/26 11:49:29;;;;;;;6.45;2.40;;;6.40;99.90;;;;;;5052701;28;20159;-76
2021/11/26 11:52:03;;;;;;;8.68;2.72;;;6.30;99.90;;;;;;5052035;28;20035;-76
2021/11/26 11:54:44;;;;;;;6.55;3.00;;;6.40;99.90;;;;;;5053322;28;20071;-75
2021/11/26 11:57:24;;;;;;;12.23;3.03;;;6.30;99.90;;;;;;5050824;28;20025;-76
2021/11/26 12:00:17;;;;;;;4.70;2.50;;;6.30;99.90;;;;;;5051869;28;20032;-76
2021/11/26 12:02:43;;;;;;;8.02;2.78;;;6.40;99.90;;;;;;5049555;28;20040;-75
2021/11/26 12:05:24;;;;;;;8.93;3.33;;;6.30;99.90;;;;;;5049682;28;20021;-76
2021/11/26 12:08:01;;;;;;;10.82;2.80;;;6.30;99.90;;;;;;5050816;28;20047;-77
2021/11/26 12:10:27;;;;;;;11.10;3.95;;;6.30;99.90;;;;;;5051989;28;20025;-75
2021/11/26 12:12:55;;;;;;;11.00;3.50;;;6.30;99.90;;;;;;5051565;28;20017;-76
2021/11/26 12:15:33;;;;;;;9.65;3.45;;;6.20;99.90;;;;;;5051801;28;20040;-76
2021/11/26 12:18:08;;;;;;;4.93;3.45;;;6.20;99.90;;;;;;5051352;28;20108;-75
2021/11/26 12:20:36;;;;;;;11.73;3.72;;;6.10;99.90;;;;;;5052011;28;20013;-76
2021/11/26 12:23:23;;;;;;;9.88;4.22;;;6.10;99.90;;;;;;5051199;28;20100;-76
2021/11/26 12:28:53;;;;;;;11.60;4.20;;;6.00;99.90;;;;;;5051011;28;20031;-76
2021/11/26 12:31:30;;;;;;;9.30;4.22;;;6.10;99.90;;;;;;5051026;28;20040;-77
2021/11/26 12:33:59;;;;;;;8.10;3.95;;;6.10;99.90;;;;;;5050172;28;20044;-77
2021/11/26 12:36:40;;;;;;;4.25;3.13;;;6.00;99.90;;;;;;5052290;28;20037;-77
2021/11/26 12:39:10;;;;;;;4.70;3.28;;;6.00;99.90;;;;;;5051838;28;20017;-77
2021/11/26 12:41:39;;;;;;;6.95;3.40;;;6.00;99.90;;;;;;5050489;28;20147;-74
2021/11/26 12:44:06;;;;;;;8.75;3.40;;;6.00;99.90;;;;;;5051741;28;20531;-76
2021/11/26 12:46:37;;;;;;;5.70;3.67;;;6.00;99.90;;;;;;5051862;28;20040;-76
2021/11/26 12:52:07;;;;;;;5.88;3.25;;;5.90;99.90;;;;;;5052593;28;20032;-76
2021/11/26 12:54:34;;;;;;;11.60;3.50;;;6.00;99.90;;;;;;5052636;28;20033;-76
2021/11/26 12:57:03;;;;;;;6.75;3.03;;;6.00;99.90;;;;;;5052304;28;20473;-76
2021/11/26 12:59:34;;;;;;;6.47;3.22;;;5.90;99.90;;;;;;5052068;28;20401;-76
2021/11/26 13:02:00;;;;;;;4.30;3.17;;;5.90;99.90;;;;;;5052164;28;20042;-76
2021/11/26 13:04:25;;;;;;;7.25;3.38;;;5.90;99.90;;;;;;5052664;28;20071;-76
2021/11/26 13:07:08;;;;;;;8.85;3.10;;;5.90;99.90;;;;;;5051288;28;20085;-76
2021/11/26 13:09:48;;;;;;;7.63;3.13;;;5.90;99.90;;;;;;5050220;28;20029;-77
2021/11/26 13:12:15;;;;;;;;;;;5.80;99.90;;;;;;5051374;28;20028;-77
2021/11/26 13:14:56;;;;;;;5.50;3.00;;;5.80;99.90;;;;;;5055699;28;19935;-78
2021/11/26 13:17:33;;;;;;;6.90;3.35;;;5.80;99.90;;;;;;5055398;28;20029;-77
2021/11/26 13:20:09;;;;;;;11.18;3.08;;;5.80;99.90;;;;;;5053944;28;20040;-76